createdAt,value
2022-08-29T00:00:41.898Z,18.29
2022-08-29T00:03:13.270Z,18.28
2022-08-29T00:05:45.230Z,18.29
2022-08-29T00:08:21.837Z,18.29
2022-08-29T00:10:53.733Z,18.27
2022-08-29T00:13:25.058Z,18.29
2022-08-29T00:15:56.412Z,18.29
2022-08-29T00:18:27.726Z,18.30
2022-08-29T00:20:59.041Z,18.33
2022-08-29T00:23:30.557Z,18.34
2022-08-29T00:26:01.956Z,18.34
2022-08-29T00:28:33.503Z,18.29
2022-08-29T00:31:04.877Z,18.24
2022-08-29T00:33:39.304Z,18.22
2022-08-29T00:36:11.289Z,18.22
2022-08-29T00:38:42.665Z,18.20
2022-08-29T00:41:14.846Z,18.21
2022-08-29T00:43:46.557Z,18.10
2022-08-29T00:46:42.572Z,18.16
2022-08-29T00:49:32.263Z,18.15
2022-08-29T00:52:10.976Z,18.15
2022-08-29T00:54:45.456Z,18.18
2022-08-29T00:57:20.062Z,18.14
2022-08-29T00:59:51.806Z,18.16
2022-08-29T01:02:23.722Z,18.14
2022-08-29T01:04:55.562Z,18.19
2022-08-29T01:07:27.279Z,18.18
2022-08-29T01:09:58.586Z,18.11
2022-08-29T01:12:30.725Z,18.13
2022-08-29T01:15:06.866Z,18.12
2022-08-29T01:17:44.115Z,18.07
2022-08-29T01:20:35.394Z,18.12
2022-08-29T01:23:20.724Z,18.12
2022-08-29T01:25:52.803Z,18.10
2022-08-29T01:28:40.283Z,18.13
2022-08-29T01:31:37.242Z,18.16
2022-08-29T01:34:09.388Z,18.15
2022-08-29T01:36:53.504Z,18.14
2022-08-29T01:39:28.315Z,18.11
2022-08-29T01:42:02.321Z,18.11
2022-08-29T01:44:33.646Z,18.07
2022-08-29T01:47:06.512Z,18.11
2022-08-29T01:49:40.569Z,18.10
2022-08-29T01:52:12.754Z,18.13
2022-08-29T01:54:45.166Z,18.11
2022-08-29T01:57:17.496Z,18.15
2022-08-29T01:59:49.172Z,18.13
2022-08-29T02:02:24.431Z,18.12
2022-08-29T02:04:58.534Z,18.14
2022-08-29T02:07:29.902Z,18.16
2022-08-29T02:10:01.327Z,18.15
2022-08-29T02:12:32.890Z,18.15
2022-08-29T02:15:06.069Z,18.16
2022-08-29T02:17:38.448Z,18.15
2022-08-29T02:20:10.626Z,18.11
2022-08-29T02:22:42.540Z,18.10
2022-08-29T02:25:32.745Z,18.08
2022-08-29T02:28:04.381Z,18.12
2022-08-29T02:30:35.938Z,18.08
2022-08-29T02:33:08.798Z,18.15
2022-08-29T02:35:42.873Z,18.17
2022-08-29T02:38:15.708Z,18.16
2022-08-29T02:40:49.050Z,18.16
2022-08-29T02:43:21.420Z,18.15
2022-08-29T02:45:53.675Z,18.15
2022-08-29T02:48:25.106Z,18.16
2022-08-29T02:50:59.051Z,18.13
2022-08-29T02:53:31.601Z,18.09
2022-08-29T02:56:03.313Z,18.05
2022-08-29T02:58:34.922Z,18.04
2022-08-29T03:01:06.415Z,18.06
2022-08-29T03:03:37.902Z,18.06
2022-08-29T03:06:09.804Z,18.03
2022-08-29T03:08:41.241Z,18.06
2022-08-29T03:11:12.602Z,18.02
2022-08-29T03:13:45.366Z,18.08
2022-08-29T03:16:18.175Z,18.09
2022-08-29T03:18:49.546Z,18.06
2022-08-29T03:21:25.130Z,18.03
2022-08-29T03:23:56.663Z,18.06
2022-08-29T03:26:28.039Z,18.00
2022-08-29T03:28:59.325Z,18.06
2022-08-29T03:31:30.719Z,18.06
2022-08-29T03:34:02.069Z,18.06
2022-08-29T03:36:33.697Z,18.04
2022-08-29T03:39:05.002Z,18.00
2022-08-29T03:41:36.384Z,17.92
2022-08-29T03:44:07.694Z,17.97
2022-08-29T03:46:39.456Z,17.93
2022-08-29T03:49:10.997Z,17.88
2022-08-29T03:51:42.449Z,17.82
2022-08-29T03:54:13.744Z,17.78
2022-08-29T03:56:46.066Z,17.84
2022-08-29T03:59:18.288Z,17.86
2022-08-29T04:01:50.801Z,17.88
2022-08-29T04:04:40.911Z,17.89
2022-08-29T04:07:14.651Z,17.88
2022-08-29T04:09:46.132Z,17.86
2022-08-29T04:12:17.630Z,17.84
2022-08-29T04:14:48.988Z,17.78
2022-08-29T04:17:20.292Z,17.74
2022-08-29T04:19:51.601Z,17.72
2022-08-29T04:22:22.904Z,17.73
2022-08-29T04:24:54.209Z,17.74
2022-08-29T04:27:25.545Z,17.74
2022-08-29T04:29:56.938Z,17.76
2022-08-29T04:32:28.286Z,17.80
2022-08-29T04:34:59.841Z,17.78
2022-08-29T04:37:31.400Z,17.81
2022-08-29T04:40:03.211Z,17.81
2022-08-29T04:42:38.569Z,17.72
2022-08-29T04:45:14.538Z,17.80
2022-08-29T04:47:46.269Z,17.78
2022-08-29T04:50:22.326Z,17.69
2022-08-29T04:52:53.555Z,17.62
2022-08-29T04:55:25.820Z,17.57
2022-08-29T04:57:57.311Z,17.55
2022-08-29T05:00:30.426Z,17.57
2022-08-29T05:03:02.441Z,17.57
2022-08-29T05:05:33.838Z,17.57
2022-08-29T05:08:05.136Z,17.57
2022-08-29T05:10:37.225Z,17.56
2022-08-29T05:13:08.561Z,17.56
2022-08-29T05:15:40.073Z,17.59
2022-08-29T05:18:13.348Z,17.60
2022-08-29T05:20:47.636Z,17.54
2022-08-29T05:23:19.095Z,17.59
2022-08-29T05:25:56.846Z,17.67
2022-08-29T05:28:30.354Z,17.68
2022-08-29T05:31:02.001Z,17.76
2022-08-29T05:33:33.486Z,17.82
2022-08-29T05:36:05.895Z,17.85
2022-08-29T05:38:37.444Z,17.78
2022-08-29T05:41:09.020Z,17.89
2022-08-29T05:43:40.338Z,17.84
2022-08-29T05:46:11.848Z,17.94
2022-08-29T05:48:43.225Z,18.01
2022-08-29T05:51:16.350Z,18.06
2022-08-29T05:53:48.312Z,18.06
2022-08-29T05:56:25.789Z,18.10
2022-08-29T05:58:57.174Z,18.12
2022-08-29T06:01:32.775Z,18.20
2022-08-29T06:04:04.570Z,18.26
2022-08-29T06:06:36.112Z,18.34
2022-08-29T06:09:08.674Z,18.41
2022-08-29T06:11:40.470Z,18.49
2022-08-29T06:14:13.684Z,18.54
2022-08-29T06:16:45.196Z,18.58
2022-08-29T06:19:16.925Z,18.58
2022-08-29T06:21:48.742Z,18.65
2022-08-29T06:24:20.084Z,18.69
2022-08-29T06:26:51.412Z,18.84
2022-08-29T06:29:22.920Z,18.94
2022-08-29T06:31:57.952Z,19.03
2022-08-29T06:34:30.222Z,19.11
2022-08-29T06:37:01.527Z,19.14
2022-08-29T06:39:32.913Z,19.16
2022-08-29T06:42:04.355Z,19.20
2022-08-29T06:44:35.800Z,19.31
2022-08-29T06:47:07.089Z,19.36
2022-08-29T06:49:38.389Z,19.43
2022-08-29T06:52:09.740Z,19.53
2022-08-29T06:54:41.028Z,19.69
2022-08-29T06:57:12.378Z,19.80
2022-08-29T06:59:43.710Z,19.87
2022-08-29T07:02:15.062Z,20.04
2022-08-29T07:04:46.397Z,20.18
2022-08-29T07:07:17.798Z,20.30
2022-08-29T07:09:49.154Z,20.51
2022-08-29T07:12:20.458Z,20.71
2022-08-29T07:14:55.714Z,20.76
2022-08-29T07:17:28.119Z,20.83
2022-08-29T07:19:59.533Z,20.93
2022-08-29T07:22:34.572Z,21.01
2022-08-29T07:25:07.287Z,21.08
2022-08-29T07:27:38.634Z,21.05
2022-08-29T07:30:10.746Z,21.00
2022-08-29T07:32:45.983Z,20.93
2022-08-29T07:35:29.564Z,20.90
2022-08-29T07:38:02.132Z,20.90
2022-08-29T07:40:33.497Z,20.95
2022-08-29T07:43:05.735Z,20.92
2022-08-29T07:45:38.962Z,20.85
2022-08-29T07:48:10.344Z,20.83
2022-08-29T07:50:42.612Z,20.88
2022-08-29T07:53:14.642Z,20.95
2022-08-29T07:55:46.700Z,20.89
2022-08-29T07:58:18.075Z,20.90
2022-08-29T08:00:49.427Z,20.92
2022-08-29T08:03:21.642Z,20.99
2022-08-29T08:05:53.461Z,21.13
2022-08-29T08:08:24.828Z,21.30
2022-08-29T08:10:56.130Z,21.56
2022-08-29T08:13:28.609Z,21.71
2022-08-29T08:16:04.642Z,21.70
2022-08-29T08:18:37.644Z,21.62
2022-08-29T08:21:09.766Z,21.55
2022-08-29T08:23:42.216Z,21.48
2022-08-29T08:26:14.395Z,21.44
2022-08-29T08:28:46.223Z,21.51
2022-08-29T08:31:18.434Z,21.71
2022-08-29T08:33:50.156Z,21.95
2022-08-29T08:36:30.836Z,22.19
2022-08-29T08:39:02.164Z,22.17
2022-08-29T08:41:33.448Z,22.21
2022-08-29T08:44:12.442Z,22.20
2022-08-29T08:46:47.734Z,22.30
2022-08-29T08:49:21.756Z,22.50
2022-08-29T08:51:58.760Z,22.62
2022-08-29T08:54:34.869Z,22.87
2022-08-29T08:57:13.017Z,23.22
2022-08-29T08:59:50.138Z,23.44
2022-08-29T09:02:51.274Z,23.53
2022-08-29T09:05:48.571Z,23.56
2022-08-29T09:09:00.323Z,23.51
2022-08-29T09:11:51.274Z,23.44
2022-08-29T09:14:33.583Z,23.54
2022-08-29T09:17:12.325Z,23.75
2022-08-29T09:19:44.765Z,23.84
2022-08-29T09:22:32.836Z,23.80
2022-08-29T09:25:06.674Z,23.84
2022-08-29T09:27:38.684Z,23.89
2022-08-29T09:30:20.429Z,23.97
2022-08-29T09:33:01.527Z,23.96
2022-08-29T09:35:47.241Z,23.94
2022-08-29T09:38:18.487Z,24.12
2022-08-29T09:40:55.667Z,24.26
2022-08-29T09:43:39.098Z,24.52
2022-08-29T09:46:10.426Z,24.58
2022-08-29T09:48:44.741Z,24.52
2022-08-29T09:51:31.478Z,24.64
2022-08-29T09:54:25.857Z,24.75
2022-08-29T09:57:03.078Z,24.52
2022-08-29T09:59:37.775Z,24.35
2022-08-29T10:02:25.639Z,24.34
2022-08-29T10:05:01.874Z,24.51
2022-08-29T10:07:47.428Z,24.78
2022-08-29T10:10:25.373Z,25.06
2022-08-29T10:13:08.191Z,25.29
2022-08-29T10:15:55.666Z,25.16
2022-08-29T10:18:44.601Z,24.91
2022-08-29T10:21:32.482Z,24.73
2022-08-29T10:24:15.860Z,24.62
2022-08-29T10:27:20.915Z,24.50
2022-08-29T10:30:01.676Z,24.60
2022-08-29T10:32:44.471Z,24.82
2022-08-29T10:35:29.715Z,25.00
2022-08-29T10:38:42.712Z,25.32
2022-08-29T10:41:38.864Z,25.33
2022-08-29T10:44:10.195Z,25.28
2022-08-29T10:46:53.294Z,25.29
2022-08-29T10:49:32.022Z,25.35
2022-08-29T10:52:18.244Z,25.28
2022-08-29T10:55:14.854Z,25.16
2022-08-29T10:57:51.314Z,25.13
2022-08-29T11:00:25.432Z,25.13
2022-08-29T11:03:15.528Z,25.04
2022-08-29T11:05:57.490Z,25.04
2022-08-29T11:08:35.506Z,24.98
2022-08-29T11:11:06.840Z,24.95
2022-08-29T11:13:46.522Z,24.91
2022-08-29T11:16:44.054Z,24.82
2022-08-29T11:19:45.755Z,24.60
2022-08-29T11:22:25.683Z,24.56
2022-08-29T11:25:10.384Z,24.58
2022-08-29T11:27:44.961Z,24.75
2022-08-29T11:30:43.677Z,24.82
2022-08-29T11:33:38.201Z,24.85
2022-08-29T11:36:42.016Z,24.94
2022-08-29T11:39:48.703Z,25.03
2022-08-29T11:45:35.682Z,24.90
2022-08-29T11:48:08.961Z,24.85
2022-08-29T11:50:40.308Z,24.85
2022-08-29T11:53:21.433Z,24.93
2022-08-29T11:56:14.538Z,25.17
2022-08-29T11:58:50.340Z,25.45
2022-08-29T12:01:24.366Z,25.58
2022-08-29T12:03:57.099Z,25.72
2022-08-29T12:06:56.787Z,25.92
2022-08-29T12:09:51.053Z,26.17
2022-08-29T12:12:39.769Z,26.35
2022-08-29T12:15:29.885Z,26.31
2022-08-29T12:18:22.603Z,26.21
2022-08-29T12:20:55.643Z,26.08
2022-08-29T12:23:36.480Z,26.06
2022-08-29T12:26:42.890Z,26.09
2022-08-29T12:29:41.273Z,26.18
2022-08-29T12:32:40.066Z,26.05
2022-08-29T12:35:54.978Z,25.79
2022-08-29T12:38:42.225Z,25.83
2022-08-29T12:41:30.716Z,25.84
2022-08-29T12:44:08.816Z,25.94
2022-08-29T12:46:44.385Z,25.99
2022-08-29T12:49:29.495Z,26.00
2022-08-29T12:52:06.290Z,25.89
2022-08-29T12:54:41.882Z,25.84
2022-08-29T12:57:22.628Z,25.87
2022-08-29T12:59:56.266Z,25.80
2022-08-29T13:02:34.960Z,25.70
2022-08-29T13:05:29.217Z,25.46
2022-08-29T13:08:13.480Z,25.23
2022-08-29T13:10:54.838Z,25.22
2022-08-29T13:13:27.488Z,25.04
2022-08-29T13:16:01.412Z,24.99
2022-08-29T13:18:44.340Z,25.16
2022-08-29T13:21:28.133Z,25.39
2022-08-29T13:24:03.570Z,25.62
2022-08-29T13:26:39.929Z,25.89
2022-08-29T13:29:29.758Z,26.14
2022-08-29T13:32:17.323Z,26.21
2022-08-29T13:35:07.521Z,26.29
2022-08-29T13:37:41.248Z,26.50
2022-08-29T13:40:36.552Z,26.73
2022-08-29T13:43:30.476Z,26.75
2022-08-29T13:46:18.242Z,26.60
2022-08-29T13:48:59.239Z,26.31
2022-08-29T13:51:30.690Z,26.27
2022-08-29T13:54:01.988Z,26.25
2022-08-29T13:56:33.556Z,26.15
2022-08-29T13:59:05.160Z,25.87
2022-08-29T14:04:38.155Z,24.89
2022-08-29T14:07:16.169Z,24.69
2022-08-29T14:09:48.474Z,24.86
2022-08-29T14:12:21.420Z,25.05
2022-08-29T14:15:09.711Z,24.92
2022-08-29T14:17:41.679Z,24.58
2022-08-29T14:20:14.381Z,24.40
2022-08-29T14:22:47.051Z,24.38
2022-08-29T14:25:20.158Z,24.52
2022-08-29T14:27:51.618Z,24.63
2022-08-29T14:30:24.676Z,24.71
2022-08-29T14:32:56.096Z,24.65
2022-08-29T14:35:31.865Z,24.72
2022-08-29T14:38:05.225Z,24.76
2022-08-29T14:40:41.783Z,24.83
2022-08-29T14:43:14.297Z,24.88
2022-08-29T14:45:45.626Z,24.85
2022-08-29T14:48:17.667Z,24.93
2022-08-29T14:50:49.029Z,25.07
2022-08-29T14:53:20.348Z,25.19
2022-08-29T14:55:52.361Z,25.35
2022-08-29T14:58:23.920Z,25.50
2022-08-29T15:00:56.298Z,25.62
2022-08-29T15:03:27.627Z,25.74
2022-08-29T15:05:58.964Z,25.75
2022-08-29T15:08:30.967Z,25.68
2022-08-29T15:11:02.344Z,25.42
2022-08-29T15:13:33.654Z,25.11
2022-08-29T15:16:05.243Z,24.71
2022-08-29T15:19:24.789Z,24.39
2022-08-29T15:21:29.374Z,24.05
2022-08-29T15:24:00.743Z,23.88
2022-08-29T15:26:32.186Z,23.67
2022-08-29T15:29:04.009Z,23.45
2022-08-29T15:31:35.711Z,23.31
2022-08-29T15:34:07.151Z,23.19
2022-08-29T15:36:38.531Z,23.15
2022-08-29T15:39:10.365Z,23.23
2022-08-29T15:41:41.747Z,23.36
2022-08-29T15:44:13.387Z,23.49
2022-08-29T15:46:50.446Z,23.54
2022-08-29T15:49:25.046Z,23.57
2022-08-29T15:51:57.287Z,23.68
2022-08-29T15:54:28.656Z,23.83
2022-08-29T15:57:00.345Z,23.99
2022-08-29T15:59:56.415Z,24.10
2022-08-29T16:02:23.163Z,24.10
2022-08-29T16:04:57.018Z,24.00
2022-08-29T16:07:29.612Z,23.93
2022-08-29T16:10:03.637Z,23.87
2022-08-29T16:12:37.275Z,23.79
2022-08-29T16:15:10.057Z,23.66
2022-08-29T16:17:41.600Z,23.51
2022-08-29T16:20:12.956Z,23.45
2022-08-29T16:22:44.591Z,23.55
2022-08-29T16:25:16.673Z,23.65
2022-08-29T16:27:48.485Z,23.73
2022-08-29T16:30:20.624Z,23.86
2022-08-29T16:32:51.999Z,23.95
2022-08-29T16:35:23.931Z,23.97
2022-08-29T16:38:02.857Z,23.92
2022-08-29T16:40:34.973Z,23.76
2022-08-29T16:43:06.339Z,23.58
2022-08-29T16:45:38.174Z,23.44
2022-08-29T16:48:15.689Z,23.24
2022-08-29T16:50:48.929Z,23.09
2022-08-29T16:53:20.650Z,22.93
2022-08-29T16:55:52.101Z,22.75
2022-08-29T16:58:42.287Z,22.51
2022-08-29T17:01:13.622Z,22.30
2022-08-29T17:03:45.043Z,22.08
2022-08-29T17:06:16.347Z,21.93
2022-08-29T17:08:47.644Z,21.73
2022-08-29T17:11:19.936Z,21.49
2022-08-29T17:13:51.939Z,21.37
2022-08-29T17:16:23.805Z,21.27
2022-08-29T17:18:55.230Z,21.18
2022-08-29T17:21:27.137Z,21.10
2022-08-29T17:23:59.467Z,20.97
2022-08-29T17:26:31.213Z,20.84
2022-08-29T17:29:03.757Z,20.66
2022-08-29T17:31:38.883Z,20.63
2022-08-29T17:34:11.472Z,20.53
2022-08-29T17:36:44.129Z,20.42
2022-08-29T17:39:15.430Z,20.36
2022-08-29T17:41:52.045Z,20.24
2022-08-29T17:44:24.549Z,20.20
2022-08-29T17:46:55.910Z,20.14
2022-08-29T17:49:29.927Z,20.06
2022-08-29T17:52:01.539Z,20.01
2022-08-29T17:54:32.841Z,19.85
2022-08-29T17:57:05.400Z,19.78
2022-08-29T17:59:37.322Z,19.80
2022-08-29T18:02:09.558Z,19.74
2022-08-29T18:04:40.945Z,19.68
2022-08-29T18:07:12.381Z,19.58
2022-08-29T18:09:43.782Z,19.51
2022-08-29T18:12:15.988Z,19.45
2022-08-29T18:14:47.407Z,19.33
2022-08-29T18:17:18.708Z,19.28
2022-08-29T18:19:50.002Z,19.20
2022-08-29T18:22:21.327Z,19.11
2022-08-29T18:24:53.191Z,19.03
2022-08-29T18:27:26.966Z,18.95
2022-08-29T18:29:58.271Z,18.86
2022-08-29T18:32:36.500Z,18.76
2022-08-29T18:35:09.629Z,18.76
2022-08-29T18:37:41.060Z,18.65
2022-08-29T18:40:12.492Z,18.65
2022-08-29T18:42:44.262Z,18.56
2022-08-29T18:45:16.053Z,18.53
2022-08-29T18:47:47.490Z,18.44
2022-08-29T18:50:33.998Z,18.39
2022-08-29T18:53:05.253Z,18.38
2022-08-29T18:55:38.646Z,18.27
2022-08-29T18:58:11.112Z,18.22
2022-08-29T19:00:43.183Z,18.13
2022-08-29T19:03:14.731Z,18.04
2022-08-29T19:05:49.766Z,17.95
2022-08-29T19:08:24.692Z,17.93
2022-08-29T19:10:56.154Z,17.84
2022-08-29T19:13:30.713Z,17.75
2022-08-29T19:16:04.629Z,17.69
2022-08-29T19:18:36.066Z,17.69
2022-08-29T19:21:07.421Z,17.59
2022-08-29T19:23:42.769Z,17.59
2022-08-29T19:26:28.165Z,17.54
2022-08-29T19:29:02.648Z,17.49
2022-08-29T19:31:34.021Z,17.44
2022-08-29T19:34:06.162Z,17.33
2022-08-29T19:36:39.353Z,17.24
2022-08-29T19:39:10.956Z,17.30
2022-08-29T19:41:42.386Z,17.24
2022-08-29T19:44:14.475Z,17.13
2022-08-29T19:46:49.236Z,17.12
2022-08-29T19:49:21.126Z,17.08
2022-08-29T19:51:52.497Z,17.00
2022-08-29T19:54:23.935Z,16.96
2022-08-29T19:56:55.247Z,16.88
2022-08-29T19:59:26.638Z,16.87
2022-08-29T20:01:58.970Z,16.80
2022-08-29T20:04:31.996Z,16.78
2022-08-29T20:07:05.228Z,16.69
2022-08-29T20:09:36.546Z,16.59
2022-08-29T20:12:09.948Z,16.54
2022-08-29T20:14:41.797Z,16.45
2022-08-29T20:17:13.244Z,16.42
2022-08-29T20:19:44.565Z,16.32
2022-08-29T20:22:16.374Z,16.29
2022-08-29T20:24:51.950Z,16.18
2022-08-29T20:27:24.065Z,16.16
2022-08-29T20:29:55.373Z,16.09
2022-08-29T20:32:26.724Z,16.05
2022-08-29T20:34:58.078Z,16.03
2022-08-29T20:37:29.723Z,15.98
2022-08-29T20:40:01.151Z,15.94
2022-08-29T20:42:32.570Z,15.93
2022-08-29T20:45:04.201Z,15.94
2022-08-29T20:47:35.794Z,15.89
2022-08-29T20:50:10.105Z,15.87
2022-08-29T20:52:41.434Z,15.89
2022-08-29T20:55:13.038Z,15.87
2022-08-29T20:57:44.386Z,15.85
2022-08-29T21:00:16.041Z,15.84
2022-08-29T21:03:06.191Z,15.80
2022-08-29T21:05:43.713Z,15.79
2022-08-29T21:08:20.578Z,15.75
2022-08-29T21:10:55.047Z,15.73
2022-08-29T21:13:26.397Z,15.69
2022-08-29T21:15:58.976Z,15.62
2022-08-29T21:18:31.317Z,15.62
2022-08-29T21:21:02.714Z,15.56
2022-08-29T21:23:34.204Z,15.54
2022-08-29T21:26:05.716Z,15.53
2022-08-29T21:28:38.025Z,15.48
2022-08-29T21:31:13.487Z,15.46
2022-08-29T21:33:45.469Z,15.40
2022-08-29T21:36:19.646Z,15.37
2022-08-29T21:38:54.072Z,15.34
2022-08-29T21:41:28.152Z,15.27
2022-08-29T21:43:59.873Z,15.24
2022-08-29T21:46:34.327Z,15.25
2022-08-29T21:49:07.023Z,15.23
2022-08-29T21:51:39.216Z,15.20
2022-08-29T21:54:13.698Z,15.19
2022-08-29T21:56:46.959Z,15.19
2022-08-29T21:59:20.320Z,15.19
2022-08-29T22:01:53.278Z,15.21
2022-08-29T22:04:28.862Z,15.21
2022-08-29T22:07:00.662Z,15.29
2022-08-29T22:09:33.302Z,15.33
2022-08-29T22:12:04.907Z,15.29
2022-08-29T22:14:54.769Z,15.35
2022-08-29T22:17:26.063Z,15.32
2022-08-29T22:19:57.393Z,15.21
2022-08-29T22:22:28.721Z,15.24
2022-08-29T22:25:00.025Z,15.20
2022-08-29T22:27:32.292Z,15.18
2022-08-29T22:30:05.920Z,15.17
2022-08-29T22:32:37.912Z,15.17
2022-08-29T22:35:13.083Z,15.18
2022-08-29T22:37:45.738Z,15.27
2022-08-29T22:40:19.425Z,15.29
2022-08-29T22:42:51.032Z,15.32
2022-08-29T22:45:22.485Z,15.38
2022-08-29T22:47:53.890Z,15.41
2022-08-29T22:50:25.749Z,15.42
2022-08-29T22:52:59.078Z,15.45
2022-08-29T22:58:01.713Z,15.53
2022-08-29T23:00:33.696Z,15.58
2022-08-29T23:03:05.135Z,15.63
2022-08-29T23:05:36.493Z,15.65
2022-08-29T23:08:08.065Z,15.70
2022-08-29T23:10:39.418Z,15.81
2022-08-29T23:13:11.762Z,15.87
2022-08-29T23:15:43.203Z,15.94
2022-08-29T23:18:14.591Z,16.00
2022-08-29T23:20:46.905Z,16.02
2022-08-29T23:23:18.331Z,16.09
2022-08-29T23:25:49.758Z,16.13
2022-08-29T23:28:21.072Z,16.13
2022-08-29T23:30:52.456Z,16.14
2022-08-29T23:33:25.878Z,16.15
2022-08-29T23:35:57.207Z,16.17
2022-08-29T23:38:28.526Z,16.15
2022-08-29T23:41:00.904Z,16.23
2022-08-29T23:43:36.917Z,16.25
2022-08-29T23:46:08.833Z,16.33
2022-08-29T23:48:40.295Z,16.35
2022-08-29T23:51:14.505Z,16.35
2022-08-29T23:53:46.325Z,16.39
2022-08-29T23:56:20.397Z,16.38
2022-08-29T23:58:54.792Z,16.42
